sensor_id;sensor_type;location;lat;lon;timestamp;P1;durP1;ratioP1;P2;durP2;ratioP2
21743;SDS011;11034;48.556;9.342;2022-09-12T00:01:18;8.32;;;7.50;;
21743;SDS011;11034;48.556;9.342;2022-09-12T00:03:51;13.02;;;8.13;;
21743;SDS011;11034;48.556;9.342;2022-09-12T00:06:20;9.55;;;8.20;;
21743;SDS011;11034;48.556;9.342;2022-09-12T00:08:50;10.93;;;8.15;;
21743;SDS011;11034;48.556;9.342;2022-09-12T00:11:22;9.63;;;8.25;;
21743;SDS011;11034;48.556;9.342;2022-09-12T00:13:51;11.35;;;9.32;;
21743;SDS011;11034;48.556;9.342;2022-09-12T00:16:23;12.02;;;9.73;;
21743;SDS011;11034;48.556;9.342;2022-09-12T00:18:54;11.60;;;9.18;;
21743;SDS011;11034;48.556;9.342;2022-09-12T00:21:22;10.82;;;9.25;;
21743;SDS011;11034;48.556;9.342;2022-09-12T00:23:50;12.63;;;9.30;;
21743;SDS011;11034;48.556;9.342;2022-09-12T00:26:19;11.82;;;9.30;;
21743;SDS011;11034;48.556;9.342;2022-09-12T00:28:48;13.02;;;10.15;;
21743;SDS011;11034;48.556;9.342;2022-09-12T00:31:17;14.02;;;10.20;;
21743;SDS011;11034;48.556;9.342;2022-09-12T00:33:54;14.80;;;9.82;;
21743;SDS011;11034;48.556;9.342;2022-09-12T00:36:24;12.30;;;10.48;;
21743;SDS011;11034;48.556;9.342;2022-09-12T00:38:53;13.90;;;10.63;;
21743;SDS011;11034;48.556;9.342;2022-09-12T00:41:22;13.80;;;10.77;;
21743;SDS011;11034;48.556;9.342;2022-09-12T00:43:53;13.38;;;10.80;;
21743;SDS011;11034;48.556;9.342;2022-09-12T00:46:27;15.25;;;11.48;;
21743;SDS011;11034;48.556;9.342;2022-09-12T00:49:02;13.43;;;10.85;;
21743;SDS011;11034;48.556;9.342;2022-09-12T00:51:35;12.00;;;9.98;;
21743;SDS011;11034;48.556;9.342;2022-09-12T00:54:05;15.27;;;10.80;;
21743;SDS011;11034;48.556;9.342;2022-09-12T00:56:36;13.82;;;9.77;;
21743;SDS011;11034;48.556;9.342;2022-09-12T00:59:10;11.93;;;10.25;;
21743;SDS011;11034;48.556;9.342;2022-09-12T01:01:40;14.68;;;10.10;;
21743;SDS011;11034;48.556;9.342;2022-09-12T01:04:12;12.70;;;9.88;;
21743;SDS011;11034;48.556;9.342;2022-09-12T01:06:41;12.27;;;9.88;;
21743;SDS011;11034;48.556;9.342;2022-09-12T01:09:11;10.85;;;9.00;;
21743;SDS011;11034;48.556;9.342;2022-09-12T01:11:41;11.90;;;10.20;;
21743;SDS011;11034;48.556;9.342;2022-09-12T01:14:12;12.93;;;10.45;;
21743;SDS011;11034;48.556;9.342;2022-09-12T01:16:40;12.45;;;10.50;;
21743;SDS011;11034;48.556;9.342;2022-09-12T01:19:16;17.63;;;10.70;;
21743;SDS011;11034;48.556;9.342;2022-09-12T01:22:06;13.60;;;10.80;;
21743;SDS011;11034;48.556;9.342;2022-09-12T01:24:50;11.65;;;9.73;;
21743;SDS011;11034;48.556;9.342;2022-09-12T01:33:06;12.32;;;9.90;;
21743;SDS011;11034;48.556;9.342;2022-09-12T01:35:54;15.30;;;9.82;;
21743;SDS011;11034;48.556;9.342;2022-09-12T01:38:33;13.23;;;9.55;;
21743;SDS011;11034;48.556;9.342;2022-09-12T01:41:08;11.88;;;9.63;;
21743;SDS011;11034;48.556;9.342;2022-09-12T01:43:43;12.38;;;9.07;;
21743;SDS011;11034;48.556;9.342;2022-09-12T01:46:18;10.45;;;8.30;;
21743;SDS011;11034;48.556;9.342;2022-09-12T01:48:53;9.07;;;7.63;;
21743;SDS011;11034;48.556;9.342;2022-09-12T01:51:30;10.18;;;8.63;;
21743;SDS011;11034;48.556;9.342;2022-09-12T01:54:04;11.65;;;7.45;;
21743;SDS011;11034;48.556;9.342;2022-09-12T01:56:41;10.70;;;8.13;;
21743;SDS011;11034;48.556;9.342;2022-09-12T01:59:15;10.40;;;8.40;;
21743;SDS011;11034;48.556;9.342;2022-09-12T02:01:49;10.38;;;9.27;;
21743;SDS011;11034;48.556;9.342;2022-09-12T02:04:23;10.98;;;8.93;;
21743;SDS011;11034;48.556;9.342;2022-09-12T02:07:00;10.63;;;9.38;;
21743;SDS011;11034;48.556;9.342;2022-09-12T02:09:34;12.02;;;9.55;;
21743;SDS011;11034;48.556;9.342;2022-09-12T02:12:07;12.93;;;11.13;;
21743;SDS011;11034;48.556;9.342;2022-09-12T02:14:39;18.17;;;12.25;;
21743;SDS011;11034;48.556;9.342;2022-09-12T02:17:13;17.77;;;12.73;;
21743;SDS011;11034;48.556;9.342;2022-09-12T02:19:46;16.55;;;12.50;;
21743;SDS011;11034;48.556;9.342;2022-09-12T02:22:18;16.40;;;12.80;;
21743;SDS011;11034;48.556;9.342;2022-09-12T02:24:51;16.23;;;12.48;;
21743;SDS011;11034;48.556;9.342;2022-09-12T02:27:23;15.25;;;11.75;;
21743;SDS011;11034;48.556;9.342;2022-09-12T02:29:55;17.80;;;11.48;;
21743;SDS011;11034;48.556;9.342;2022-09-12T02:32:27;16.52;;;11.27;;
21743;SDS011;11034;48.556;9.342;2022-09-12T02:34:58;14.43;;;10.15;;
21743;SDS011;11034;48.556;9.342;2022-09-12T02:37:36;15.13;;;11.02;;
21743;SDS011;11034;48.556;9.342;2022-09-12T02:40:12;16.42;;;12.25;;
21743;SDS011;11034;48.556;9.342;2022-09-12T02:42:41;17.80;;;12.43;;
21743;SDS011;11034;48.556;9.342;2022-09-12T02:45:09;14.07;;;11.98;;
21743;SDS011;11034;48.556;9.342;2022-09-12T02:47:40;13.40;;;11.10;;
21743;SDS011;11034;48.556;9.342;2022-09-12T02:50:11;14.82;;;12.25;;
21743;SDS011;11034;48.556;9.342;2022-09-12T02:52:40;15.02;;;11.75;;
21743;SDS011;11034;48.556;9.342;2022-09-12T02:55:10;14.70;;;11.63;;
21743;SDS011;11034;48.556;9.342;2022-09-12T02:57:38;16.02;;;12.43;;
21743;SDS011;11034;48.556;9.342;2022-09-12T03:00:07;15.40;;;12.18;;
21743;SDS011;11034;48.556;9.342;2022-09-12T03:02:42;15.82;;;12.75;;
21743;SDS011;11034;48.556;9.342;2022-09-12T03:05:23;16.85;;;12.60;;
21743;SDS011;11034;48.556;9.342;2022-09-12T03:07:58;16.73;;;12.95;;
21743;SDS011;11034;48.556;9.342;2022-09-12T03:10:49;14.48;;;11.02;;
21743;SDS011;11034;48.556;9.342;2022-09-12T03:13:33;12.00;;;9.80;;
21743;SDS011;11034;48.556;9.342;2022-09-12T03:16:08;13.40;;;8.43;;
21743;SDS011;11034;48.556;9.342;2022-09-12T03:18:48;11.68;;;9.18;;
21743;SDS011;11034;48.556;9.342;2022-09-12T03:21:22;11.77;;;8.80;;
21743;SDS011;11034;48.556;9.342;2022-09-12T03:23:59;12.30;;;8.93;;
21743;SDS011;11034;48.556;9.342;2022-09-12T03:26:41;11.40;;;8.82;;
21743;SDS011;11034;48.556;9.342;2022-09-12T03:29:14;10.13;;;8.52;;
21743;SDS011;11034;48.556;9.342;2022-09-12T03:31:48;12.25;;;8.57;;
21743;SDS011;11034;48.556;9.342;2022-09-12T03:34:21;10.98;;;9.10;;
21743;SDS011;11034;48.556;9.342;2022-09-12T03:36:50;12.20;;;9.77;;
21743;SDS011;11034;48.556;9.342;2022-09-12T03:39:20;14.98;;;10.15;;
21743;SDS011;11034;48.556;9.342;2022-09-12T03:41:51;11.23;;;9.48;;
21743;SDS011;11034;48.556;9.342;2022-09-12T03:44:20;19.05;;;10.27;;
21743;SDS011;11034;48.556;9.342;2022-09-12T03:46:48;10.50;;;9.38;;
21743;SDS011;11034;48.556;9.342;2022-09-12T03:49:16;11.05;;;8.52;;
21743;SDS011;11034;48.556;9.342;2022-09-12T03:51:45;10.30;;;8.85;;
21743;SDS011;11034;48.556;9.342;2022-09-12T03:54:13;9.07;;;8.05;;
21743;SDS011;11034;48.556;9.342;2022-09-12T03:56:41;12.20;;;8.70;;
21743;SDS011;11034;48.556;9.342;2022-09-12T03:59:09;9.45;;;8.45;;
21743;SDS011;11034;48.556;9.342;2022-09-12T04:01:37;11.68;;;8.13;;
21743;SDS011;11034;48.556;9.342;2022-09-12T04:04:07;10.25;;;7.70;;
21743;SDS011;11034;48.556;9.342;2022-09-12T04:06:35;10.15;;;8.52;;
21743;SDS011;11034;48.556;9.342;2022-09-12T04:09:04;11.70;;;8.60;;
21743;SDS011;11034;48.556;9.342;2022-09-12T04:11:32;8.85;;;7.95;;
21743;SDS011;11034;48.556;9.342;2022-09-12T04:14:01;10.75;;;8.63;;
21743;SDS011;11034;48.556;9.342;2022-09-12T04:16:29;10.88;;;8.63;;
21743;SDS011;11034;48.556;9.342;2022-09-12T04:18:58;12.55;;;9.65;;
21743;SDS011;11034;48.556;9.342;2022-09-12T04:21:29;9.30;;;7.75;;
21743;SDS011;11034;48.556;9.342;2022-09-12T04:23:58;9.65;;;7.90;;
21743;SDS011;11034;48.556;9.342;2022-09-12T04:26:33;10.55;;;7.78;;
21743;SDS011;11034;48.556;9.342;2022-09-12T04:29:01;12.80;;;8.25;;
21743;SDS011;11034;48.556;9.342;2022-09-12T04:31:29;10.90;;;8.60;;
21743;SDS011;11034;48.556;9.342;2022-09-12T04:34:01;10.95;;;8.50;;
21743;SDS011;11034;48.556;9.342;2022-09-12T04:36:30;10.07;;;8.50;;
21743;SDS011;11034;48.556;9.342;2022-09-12T04:39:02;12.18;;;9.10;;
21743;SDS011;11034;48.556;9.342;2022-09-12T04:41:31;11.93;;;9.77;;
21743;SDS011;11034;48.556;9.342;2022-09-12T04:44:03;12.00;;;9.85;;
21743;SDS011;11034;48.556;9.342;2022-09-12T04:46:33;12.43;;;8.88;;
21743;SDS011;11034;48.556;9.342;2022-09-12T04:49:05;11.93;;;9.00;;
21743;SDS011;11034;48.556;9.342;2022-09-12T04:51:34;11.48;;;9.07;;
21743;SDS011;11034;48.556;9.342;2022-09-12T04:54:04;12.43;;;8.95;;
21743;SDS011;11034;48.556;9.342;2022-09-12T04:56:37;14.68;;;10.27;;
21743;SDS011;11034;48.556;9.342;2022-09-12T04:59:06;14.63;;;10.07;;
21743;SDS011;11034;48.556;9.342;2022-09-12T05:01:36;14.98;;;10.60;;
21743;SDS011;11034;48.556;9.342;2022-09-12T05:04:04;17.77;;;11.13;;
21743;SDS011;11034;48.556;9.342;2022-09-12T05:06:33;15.50;;;11.10;;
21743;SDS011;11034;48.556;9.342;2022-09-12T05:09:03;20.75;;;14.98;;
21743;SDS011;11034;48.556;9.342;2022-09-12T05:11:32;19.65;;;13.05;;
21743;SDS011;11034;48.556;9.342;2022-09-12T05:14:24;16.85;;;12.77;;
21743;SDS011;11034;48.556;9.342;2022-09-12T05:16:52;16.20;;;12.48;;
21743;SDS011;11034;48.556;9.342;2022-09-12T05:19:25;15.95;;;11.00;;
21743;SDS011;11034;48.556;9.342;2022-09-12T05:21:56;18.42;;;11.90;;
21743;SDS011;11034;48.556;9.342;2022-09-12T05:24:35;15.57;;;10.43;;
21743;SDS011;11034;48.556;9.342;2022-09-12T05:27:04;15.88;;;9.82;;
21743;SDS011;11034;48.556;9.342;2022-09-12T05:29:34;12.82;;;9.63;;
21743;SDS011;11034;48.556;9.342;2022-09-12T05:32:02;11.70;;;9.98;;
21743;SDS011;11034;48.556;9.342;2022-09-12T05:34:30;13.43;;;10.80;;
21743;SDS011;11034;48.556;9.342;2022-09-12T05:36:58;13.43;;;10.93;;
21743;SDS011;11034;48.556;9.342;2022-09-12T05:39:26;19.25;;;13.43;;
21743;SDS011;11034;48.556;9.342;2022-09-12T05:41:57;16.20;;;12.25;;
21743;SDS011;11034;48.556;9.342;2022-09-12T05:44:25;17.05;;;12.68;;
21743;SDS011;11034;48.556;9.342;2022-09-12T05:46:58;16.15;;;13.38;;
21743;SDS011;11034;48.556;9.342;2022-09-12T05:49:26;16.83;;;13.52;;
21743;SDS011;11034;48.556;9.342;2022-09-12T05:51:55;20.33;;;15.63;;
21743;SDS011;11034;48.556;9.342;2022-09-12T05:54:23;19.40;;;14.20;;
21743;SDS011;11034;48.556;9.342;2022-09-12T05:56:56;20.40;;;14.70;;
21743;SDS011;11034;48.556;9.342;2022-09-12T05:59:25;17.42;;;14.30;;
21743;SDS011;11034;48.556;9.342;2022-09-12T06:01:53;21.45;;;15.50;;
21743;SDS011;11034;48.556;9.342;2022-09-12T06:04:23;19.58;;;15.70;;
21743;SDS011;11034;48.556;9.342;2022-09-12T06:06:51;21.13;;;15.40;;
21743;SDS011;11034;48.556;9.342;2022-09-12T06:09:21;23.60;;;16.20;;
21743;SDS011;11034;48.556;9.342;2022-09-12T06:11:50;20.13;;;15.00;;
21743;SDS011;11034;48.556;9.342;2022-09-12T06:14:18;20.08;;;15.27;;
21743;SDS011;11034;48.556;9.342;2022-09-12T06:16:47;18.40;;;14.50;;
21743;SDS011;11034;48.556;9.342;2022-09-12T06:19:16;20.80;;;14.25;;
21743;SDS011;11034;48.556;9.342;2022-09-12T06:21:47;16.15;;;12.40;;
21743;SDS011;11034;48.556;9.342;2022-09-12T06:24:17;13.60;;;10.38;;
21743;SDS011;11034;48.556;9.342;2022-09-12T06:26:45;11.48;;;9.48;;
21743;SDS011;11034;48.556;9.342;2022-09-12T06:29:14;9.30;;;8.30;;
21743;SDS011;11034;48.556;9.342;2022-09-12T06:31:44;11.82;;;9.35;;
21743;SDS011;11034;48.556;9.342;2022-09-12T06:34:13;8.98;;;7.70;;
21743;SDS011;11034;48.556;9.342;2022-09-12T06:36:45;9.52;;;8.45;;
21743;SDS011;11034;48.556;9.342;2022-09-12T06:39:16;10.05;;;8.98;;
21743;SDS011;11034;48.556;9.342;2022-09-12T06:41:47;9.63;;;8.63;;
21743;SDS011;11034;48.556;9.342;2022-09-12T06:44:19;9.32;;;8.32;;
21743;SDS011;11034;48.556;9.342;2022-09-12T06:46:49;8.93;;;8.00;;
21743;SDS011;11034;48.556;9.342;2022-09-12T06:49:18;8.82;;;7.80;;
21743;SDS011;11034;48.556;9.342;2022-09-12T06:51:52;8.82;;;6.97;;
21743;SDS011;11034;48.556;9.342;2022-09-12T06:54:20;9.18;;;6.35;;
21743;SDS011;11034;48.556;9.342;2022-09-12T06:58:11;6.93;;;6.18;;
21743;SDS011;11034;48.556;9.342;2022-09-12T07:00:16;9.85;;;6.05;;
21743;SDS011;11034;48.556;9.342;2022-09-12T07:03:07;5.20;;;4.70;;
21743;SDS011;11034;48.556;9.342;2022-09-12T07:05:41;4.80;;;4.40;;
21743;SDS011;11034;48.556;9.342;2022-09-12T07:08:36;4.75;;;4.22;;
21743;SDS011;11034;48.556;9.342;2022-09-12T07:11:07;4.72;;;3.75;;
21743;SDS011;11034;48.556;9.342;2022-09-12T07:13:37;4.63;;;4.22;;
21743;SDS011;11034;48.556;9.342;2022-09-12T07:16:05;5.93;;;4.30;;
21743;SDS011;11034;48.556;9.342;2022-09-12T07:18:34;5.63;;;3.92;;
21743;SDS011;11034;48.556;9.342;2022-09-12T07:21:05;7.03;;;4.22;;
21743;SDS011;11034;48.556;9.342;2022-09-12T07:23:41;4.15;;;3.75;;
21743;SDS011;11034;48.556;9.342;2022-09-12T07:26:26;6.00;;;4.90;;
21743;SDS011;11034;48.556;9.342;2022-09-12T07:29:19;7.05;;;4.95;;
21743;SDS011;11034;48.556;9.342;2022-09-12T07:32:04;4.82;;;4.35;;
21743;SDS011;11034;48.556;9.342;2022-09-12T07:34:43;5.75;;;4.53;;
21743;SDS011;11034;48.556;9.342;2022-09-12T07:37:25;6.53;;;4.90;;
21743;SDS011;11034;48.556;9.342;2022-09-12T07:40:10;6.30;;;5.68;;
21743;SDS011;11034;48.556;9.342;2022-09-12T07:42:58;6.38;;;5.57;;
21743;SDS011;11034;48.556;9.342;2022-09-12T07:45:45;7.00;;;5.75;;
21743;SDS011;11034;48.556;9.342;2022-09-12T07:48:34;9.65;;;5.78;;
21743;SDS011;11034;48.556;9.342;2022-09-12T07:51:16;7.93;;;6.18;;
21743;SDS011;11034;48.556;9.342;2022-09-12T07:53:56;7.15;;;5.80;;
21743;SDS011;11034;48.556;9.342;2022-09-12T07:56:44;9.73;;;6.72;;
21743;SDS011;11034;48.556;9.342;2022-09-12T07:59:39;7.00;;;6.18;;
21743;SDS011;11034;48.556;9.342;2022-09-12T08:02:18;10.43;;;7.15;;
21743;SDS011;11034;48.556;9.342;2022-09-12T08:05:19;6.97;;;5.75;;
21743;SDS011;11034;48.556;9.342;2022-09-12T08:07:53;6.40;;;5.45;;
21743;SDS011;11034;48.556;9.342;2022-09-12T08:10:36;7.43;;;5.45;;
21743;SDS011;11034;48.556;9.342;2022-09-12T08:13:06;8.00;;;5.90;;
21743;SDS011;11034;48.556;9.342;2022-09-12T08:15:38;6.45;;;5.35;;
21743;SDS011;11034;48.556;9.342;2022-09-12T08:18:06;6.03;;;4.80;;
21743;SDS011;11034;48.556;9.342;2022-09-12T08:20:35;8.55;;;5.50;;
21743;SDS011;11034;48.556;9.342;2022-09-12T08:23:05;6.78;;;5.25;;
21743;SDS011;11034;48.556;9.342;2022-09-12T08:25:33;7.15;;;5.38;;
21743;SDS011;11034;48.556;9.342;2022-09-12T08:28:01;7.10;;;5.10;;
21743;SDS011;11034;48.556;9.342;2022-09-12T08:30:31;6.63;;;4.80;;
21743;SDS011;11034;48.556;9.342;2022-09-12T08:32:59;6.30;;;5.50;;
21743;SDS011;11034;48.556;9.342;2022-09-12T08:35:27;7.72;;;4.78;;
21743;SDS011;11034;48.556;9.342;2022-09-12T08:37:55;6.00;;;5.07;;
21743;SDS011;11034;48.556;9.342;2022-09-12T08:40:24;6.22;;;5.05;;
21743;SDS011;11034;48.556;9.342;2022-09-12T08:42:56;5.90;;;5.30;;
21743;SDS011;11034;48.556;9.342;2022-09-12T08:45:31;5.97;;;4.72;;
21743;SDS011;11034;48.556;9.342;2022-09-12T08:48:07;5.90;;;5.30;;
21743;SDS011;11034;48.556;9.342;2022-09-12T08:50:38;5.68;;;4.90;;
21743;SDS011;11034;48.556;9.342;2022-09-12T08:53:38;8.68;;;4.70;;
21743;SDS011;11034;48.556;9.342;2022-09-12T08:56:38;5.35;;;4.85;;
21743;SDS011;11034;48.556;9.342;2022-09-12T08:59:34;5.68;;;5.00;;
21743;SDS011;11034;48.556;9.342;2022-09-12T09:02:37;7.75;;;5.22;;
21743;SDS011;11034;48.556;9.342;2022-09-12T09:05:31;5.55;;;5.05;;
21743;SDS011;11034;48.556;9.342;2022-09-12T09:08:21;7.00;;;4.53;;
21743;SDS011;11034;48.556;9.342;2022-09-12T09:11:11;5.40;;;4.32;;
21743;SDS011;11034;48.556;9.342;2022-09-12T09:14:33;6.72;;;4.28;;
21743;SDS011;11034;48.556;9.342;2022-09-12T09:21:04;4.78;;;4.38;;
21743;SDS011;11034;48.556;9.342;2022-09-12T09:23:58;5.35;;;4.13;;
21743;SDS011;11034;48.556;9.342;2022-09-12T09:30:12;4.97;;;3.38;;
21743;SDS011;11034;48.556;9.342;2022-09-12T09:32:53;6.50;;;3.78;;
21743;SDS011;11034;48.556;9.342;2022-09-12T09:35:37;6.70;;;3.92;;
21743;SDS011;11034;48.556;9.342;2022-09-12T09:38:20;4.35;;;3.88;;
21743;SDS011;11034;48.556;9.342;2022-09-12T09:44:47;4.28;;;3.88;;
21743;SDS011;11034;48.556;9.342;2022-09-12T09:47:43;4.00;;;3.60;;
21743;SDS011;11034;48.556;9.342;2022-09-12T09:50:31;6.97;;;3.97;;
21743;SDS011;11034;48.556;9.342;2022-09-12T09:53:37;4.65;;;4.20;;
21743;SDS011;11034;48.556;9.342;2022-09-12T09:59:28;4.50;;;3.78;;
21743;SDS011;11034;48.556;9.342;2022-09-12T10:02:18;7.53;;;3.72;;
21743;SDS011;11034;48.556;9.342;2022-09-12T10:05:31;4.70;;;3.40;;
21743;SDS011;11034;48.556;9.342;2022-09-12T10:08:01;4.22;;;3.63;;
21743;SDS011;11034;48.556;9.342;2022-09-12T10:10:33;4.15;;;3.75;;
21743;SDS011;11034;48.556;9.342;2022-09-12T10:13:05;4.32;;;3.58;;
21743;SDS011;11034;48.556;9.342;2022-09-12T10:15:37;5.68;;;3.53;;
21743;SDS011;11034;48.556;9.342;2022-09-12T10:18:05;4.82;;;3.50;;
21743;SDS011;11034;48.556;9.342;2022-09-12T10:20:34;4.47;;;3.45;;
21743;SDS011;11034;48.556;9.342;2022-09-12T10:23:15;4.03;;;3.42;;
21743;SDS011;11034;48.556;9.342;2022-09-12T10:25:58;3.75;;;3.45;;
21743;SDS011;11034;48.556;9.342;2022-09-12T10:28:30;4.00;;;3.10;;
21743;SDS011;11034;48.556;9.342;2022-09-12T10:31:03;4.85;;;3.13;;
21743;SDS011;11034;48.556;9.342;2022-09-12T10:33:33;4.13;;;3.28;;
21743;SDS011;11034;48.556;9.342;2022-09-12T10:36:07;6.63;;;3.22;;
21743;SDS011;11034;48.556;9.342;2022-09-12T10:38:36;5.38;;;3.22;;
21743;SDS011;11034;48.556;9.342;2022-09-12T10:44:58;3.97;;;2.80;;
21743;SDS011;11034;48.556;9.342;2022-09-12T10:47:26;3.72;;;3.15;;
21743;SDS011;11034;48.556;9.342;2022-09-12T10:52:52;4.88;;;3.03;;
21743;SDS011;11034;48.556;9.342;2022-09-12T10:56:23;5.00;;;2.85;;
21743;SDS011;11034;48.556;9.342;2022-09-12T11:26:03;3.78;;;2.60;;
21743;SDS011;11034;48.556;9.342;2022-09-12T11:28:48;3.63;;;2.78;;
21743;SDS011;11034;48.556;9.342;2022-09-12T11:31:36;2.72;;;2.53;;
21743;SDS011;11034;48.556;9.342;2022-09-12T11:34:26;3.10;;;2.35;;
21743;SDS011;11034;48.556;9.342;2022-09-12T11:37:10;3.58;;;2.20;;
21743;SDS011;11034;48.556;9.342;2022-09-12T11:43:15;2.10;;;1.90;;
21743;SDS011;11034;48.556;9.342;2022-09-12T11:46:21;1.95;;;1.70;;
21743;SDS011;11034;48.556;9.342;2022-09-12T11:49:42;2.17;;;1.95;;
21743;SDS011;11034;48.556;9.342;2022-09-12T11:52:46;1.90;;;1.63;;
21743;SDS011;11034;48.556;9.342;2022-09-12T12:17:45;2.63;;;2.25;;
21743;SDS011;11034;48.556;9.342;2022-09-12T12:28:15;2.63;;;2.30;;
21743;SDS011;11034;48.556;9.342;2022-09-12T13:29:45;2.35;;;0.98;;
21743;SDS011;11034;48.556;9.342;2022-09-12T13:32:56;1.88;;;1.17;;
21743;SDS011;11034;48.556;9.342;2022-09-12T13:35:38;1.98;;;1.13;;
21743;SDS011;11034;48.556;9.342;2022-09-12T13:38:19;2.95;;;1.40;;
21743;SDS011;11034;48.556;9.342;2022-09-12T13:41:07;2.35;;;1.17;;
21743;SDS011;11034;48.556;9.342;2022-09-12T13:43:47;2.65;;;1.10;;
21743;SDS011;11034;48.556;9.342;2022-09-12T13:46:20;1.65;;;1.15;;
21743;SDS011;11034;48.556;9.342;2022-09-12T13:48:55;1.23;;;1.13;;
21743;SDS011;11034;48.556;9.342;2022-09-12T13:51:28;1.48;;;1.13;;
21743;SDS011;11034;48.556;9.342;2022-09-12T13:53:58;2.88;;;1.20;;
21743;SDS011;11034;48.556;9.342;2022-09-12T13:56:30;1.73;;;1.23;;
21743;SDS011;11034;48.556;9.342;2022-09-12T13:58:59;2.15;;;1.10;;
21743;SDS011;11034;48.556;9.342;2022-09-12T14:01:37;1.58;;;1.10;;
21743;SDS011;11034;48.556;9.342;2022-09-12T14:04:13;1.30;;;1.20;;
21743;SDS011;11034;48.556;9.342;2022-09-12T15:00:12;1.10;;;1.00;;
21743;SDS011;11034;48.556;9.342;2022-09-12T15:03:29;1.80;;;1.30;;
21743;SDS011;11034;48.556;9.342;2022-09-12T15:28:47;2.45;;;1.00;;
21743;SDS011;11034;48.556;9.342;2022-09-12T15:31:45;2.25;;;1.05;;
21743;SDS011;11034;48.556;9.342;2022-09-12T15:35:11;1.23;;;1.05;;
21743;SDS011;11034;48.556;9.342;2022-09-12T15:38:53;1.10;;;1.00;;
21743;SDS011;11034;48.556;9.342;2022-09-12T15:42:05;0.85;;;0.85;;
21743;SDS011;11034;48.556;9.342;2022-09-12T15:56:31;1.20;;;1.10;;
21743;SDS011;11034;48.556;9.342;2022-09-12T16:07:22;1.52;;;1.05;;
21743;SDS011;11034;48.556;9.342;2022-09-12T16:10:01;1.15;;;0.93;;
21743;SDS011;11034;48.556;9.342;2022-09-12T16:12:44;2.65;;;1.10;;
21743;SDS011;11034;48.556;9.342;2022-09-12T16:15:19;1.75;;;1.20;;
21743;SDS011;11034;48.556;9.342;2022-09-12T16:17:54;2.28;;;1.40;;
21743;SDS011;11034;48.556;9.342;2022-09-12T16:20:22;1.20;;;1.10;;
21743;SDS011;11034;48.556;9.342;2022-09-12T16:22:51;2.17;;;1.30;;
21743;SDS011;11034;48.556;9.342;2022-09-12T16:25:19;4.55;;;1.50;;
21743;SDS011;11034;48.556;9.342;2022-09-12T16:27:47;3.35;;;1.33;;
21743;SDS011;11034;48.556;9.342;2022-09-12T16:30:16;1.48;;;1.00;;
21743;SDS011;11034;48.556;9.342;2022-09-12T16:32:44;2.60;;;1.08;;
21743;SDS011;11034;48.556;9.342;2022-09-12T16:35:12;2.72;;;1.20;;
21743;SDS011;11034;48.556;9.342;2022-09-12T16:37:40;2.08;;;1.20;;
21743;SDS011;11034;48.556;9.342;2022-09-12T16:40:10;3.30;;;1.40;;
21743;SDS011;11034;48.556;9.342;2022-09-12T16:42:40;1.60;;;1.30;;
21743;SDS011;11034;48.556;9.342;2022-09-12T16:45:09;1.38;;;1.10;;
21743;SDS011;11034;48.556;9.342;2022-09-12T16:47:38;2.38;;;1.88;;
21743;SDS011;11034;48.556;9.342;2022-09-12T16:50:06;2.03;;;1.52;;
21743;SDS011;11034;48.556;9.342;2022-09-12T16:52:35;2.70;;;1.58;;
21743;SDS011;11034;48.556;9.342;2022-09-12T16:55:03;2.78;;;1.50;;
21743;SDS011;11034;48.556;9.342;2022-09-12T16:57:33;1.52;;;1.20;;
21743;SDS011;11034;48.556;9.342;2022-09-12T17:00:01;3.65;;;1.27;;
21743;SDS011;11034;48.556;9.342;2022-09-12T17:02:30;3.10;;;1.30;;
21743;SDS011;11034;48.556;9.342;2022-09-12T17:04:58;2.88;;;1.15;;
21743;SDS011;11034;48.556;9.342;2022-09-12T17:07:26;1.33;;;1.10;;
21743;SDS011;11034;48.556;9.342;2022-09-12T17:09:54;1.15;;;0.98;;
21743;SDS011;11034;48.556;9.342;2022-09-12T17:12:22;2.00;;;1.00;;
21743;SDS011;11034;48.556;9.342;2022-09-12T17:14:52;1.30;;;1.15;;
21743;SDS011;11034;48.556;9.342;2022-09-12T17:17:20;1.00;;;0.90;;
21743;SDS011;11034;48.556;9.342;2022-09-12T17:19:48;1.00;;;0.90;;
21743;SDS011;11034;48.556;9.342;2022-09-12T17:22:16;1.50;;;1.10;;
21743;SDS011;11034;48.556;9.342;2022-09-12T17:24:44;1.58;;;1.02;;
21743;SDS011;11034;48.556;9.342;2022-09-12T17:27:15;1.58;;;1.00;;
21743;SDS011;11034;48.556;9.342;2022-09-12T17:29:43;1.55;;;1.10;;
21743;SDS011;11034;48.556;9.342;2022-09-12T17:32:12;3.50;;;1.40;;
21743;SDS011;11034;48.556;9.342;2022-09-12T17:34:43;2.08;;;1.40;;
21743;SDS011;11034;48.556;9.342;2022-09-12T17:37:11;1.88;;;1.27;;
21743;SDS011;11034;48.556;9.342;2022-09-12T17:39:44;1.83;;;1.10;;
21743;SDS011;11034;48.556;9.342;2022-09-12T17:42:36;0.98;;;0.95;;
21743;SDS011;11034;48.556;9.342;2022-09-12T17:45:17;1.23;;;0.98;;
21743;SDS011;11034;48.556;9.342;2022-09-12T17:48:08;1.02;;;1.02;;
21743;SDS011;11034;48.556;9.342;2022-09-12T17:50:45;1.50;;;1.13;;
21743;SDS011;11034;48.556;9.342;2022-09-12T17:53:13;2.50;;;1.13;;
21743;SDS011;11034;48.556;9.342;2022-09-12T17:55:41;2.17;;;1.00;;
21743;SDS011;11034;48.556;9.342;2022-09-12T17:58:10;1.70;;;1.00;;
21743;SDS011;11034;48.556;9.342;2022-09-12T18:00:38;1.10;;;0.90;;
21743;SDS011;11034;48.556;9.342;2022-09-12T18:11:10;2.55;;;1.00;;
21743;SDS011;11034;48.556;9.342;2022-09-12T18:13:39;3.30;;;1.20;;
21743;SDS011;11034;48.556;9.342;2022-09-12T18:24:57;1.95;;;1.20;;
21743;SDS011;11034;48.556;9.342;2022-09-12T20:12:11;3.92;;;1.33;;
21743;SDS011;11034;48.556;9.342;2022-09-12T20:14:43;2.50;;;1.40;;
21743;SDS011;11034;48.556;9.342;2022-09-12T20:17:56;2.53;;;1.30;;
21743;SDS011;11034;48.556;9.342;2022-09-12T20:21:34;1.67;;;1.30;;
21743;SDS011;11034;48.556;9.342;2022-09-12T20:24:41;1.83;;;1.20;;
21743;SDS011;11034;48.556;9.342;2022-09-12T20:34:24;1.45;;;1.35;;
21743;SDS011;11034;48.556;9.342;2022-09-12T20:37:23;3.72;;;1.60;;
21743;SDS011;11034;48.556;9.342;2022-09-12T20:39:54;2.35;;;1.30;;
21743;SDS011;11034;48.556;9.342;2022-09-12T20:43:10;2.15;;;1.35;;
